sensor_id;sensor_type;location;lat;lon;timestamp;temperature;humidity
54946;DHT22;40846;44.788;20.486;2023-04-15T00:00:42;282.20;2278.40
54946;DHT22;40846;44.788;20.486;2023-04-15T00:03:07;282.20;2278.40
54946;DHT22;40846;44.788;20.486;2023-04-15T00:05:33;282.20;2278.40
54946;DHT22;40846;44.788;20.486;2023-04-15T00:08:00;282.20;2278.40
54946;DHT22;40846;44.788;20.486;2023-04-15T00:10:26;282.20;2278.40
54946;DHT22;40846;44.788;20.486;2023-04-15T00:12:54;282.20;2278.40
54946;DHT22;40846;44.788;20.486;2023-04-15T00:15:21;282.20;2278.40
54946;DHT22;40846;44.788;20.486;2023-04-15T00:17:49;282.20;2278.40
54946;DHT22;40846;44.788;20.486;2023-04-15T00:20:16;282.10;2278.40
54946;DHT22;40846;44.788;20.486;2023-04-15T00:22:46;282.10;2278.40
54946;DHT22;40846;44.788;20.486;2023-04-15T00:25:15;282.10;2278.40
54946;DHT22;40846;44.788;20.486;2023-04-15T00:27:43;282.10;2278.40
54946;DHT22;40846;44.788;20.486;2023-04-15T00:30:09;282.00;2278.40
54946;DHT22;40846;44.788;20.486;2023-04-15T00:32:40;282.00;2278.40
54946;DHT22;40846;44.788;20.486;2023-04-15T00:35:08;282.00;2278.40
54946;DHT22;40846;44.788;20.486;2023-04-15T00:37:35;282.00;2278.40
54946;DHT22;40846;44.788;20.486;2023-04-15T00:40:09;281.90;2278.40
54946;DHT22;40846;44.788;20.486;2023-04-15T00:42:37;281.90;2278.40
54946;DHT22;40846;44.788;20.486;2023-04-15T00:45:05;281.80;2278.40
54946;DHT22;40846;44.788;20.486;2023-04-15T00:47:40;281.80;2278.40
54946;DHT22;40846;44.788;20.486;2023-04-15T04:52:32;231.10;2252.80
54946;DHT22;40846;44.788;20.486;2023-04-15T04:54:57;231.00;2252.80
54946;DHT22;40846;44.788;20.486;2023-04-15T04:57:24;231.10;2252.80
54946;DHT22;40846;44.788;20.486;2023-04-15T04:59:49;231.20;2252.80
54946;DHT22;40846;44.788;20.486;2023-04-15T05:02:15;231.30;2252.80
54946;DHT22;40846;44.788;20.486;2023-04-15T05:04:42;256.00;2252.80
54946;DHT22;40846;44.788;20.486;2023-04-15T05:07:08;256.20;2252.80
54946;DHT22;40846;44.788;20.486;2023-04-15T05:09:34;256.20;2252.80
54946;DHT22;40846;44.788;20.486;2023-04-15T05:12:01;256.30;2252.80
54946;DHT22;40846;44.788;20.486;2023-04-15T05:24:12;282.30;2278.40
54946;DHT22;40846;44.788;20.486;2023-04-15T05:29:10;282.30;2278.40
54946;DHT22;40846;44.788;20.486;2023-04-15T05:31:36;307.30;2304.00
54946;DHT22;40846;44.788;20.486;2023-04-15T05:34:02;282.50;2278.40
54946;DHT22;40846;44.788;20.486;2023-04-15T05:36:27;307.20;2304.00
54946;DHT22;40846;44.788;20.486;2023-04-15T05:38:53;307.30;2304.00
54946;DHT22;40846;44.788;20.486;2023-04-15T05:41:19;307.30;2304.00
54946;DHT22;40846;44.788;20.486;2023-04-15T05:43:45;307.40;2304.00
54946;DHT22;40846;44.788;20.486;2023-04-15T05:46:11;307.40;2304.00
54946;DHT22;40846;44.788;20.486;2023-04-15T05:48:36;307.60;2304.00
54946;DHT22;40846;44.788;20.486;2023-04-15T05:51:02;307.60;2304.00
54946;DHT22;40846;44.788;20.486;2023-04-15T05:53:28;307.70;2304.00
54946;DHT22;40846;44.788;20.486;2023-04-15T06:05:38;332.90;2329.60
54946;DHT22;40846;44.788;20.486;2023-04-15T06:08:05;308.00;2304.00
54946;DHT22;40846;44.788;20.486;2023-04-15T06:10:31;308.10;2304.00
54946;DHT22;40846;44.788;20.486;2023-04-15T06:13:04;333.00;2329.60
54946;DHT22;40846;44.788;20.486;2023-04-15T06:15:29;333.20;2329.60
54946;DHT22;40846;44.788;20.486;2023-04-15T06:17:56;333.20;2329.60
54946;DHT22;40846;44.788;20.486;2023-04-15T06:20:22;333.40;2329.60
54946;DHT22;40846;44.788;20.486;2023-04-15T06:22:48;333.60;2329.60
54946;DHT22;40846;44.788;20.486;2023-04-15T06:25:14;333.70;2304.00
54946;DHT22;40846;44.788;20.486;2023-04-15T06:27:40;358.40;2278.40
54946;DHT22;40846;44.788;20.486;2023-04-15T06:30:06;358.50;2252.80
54946;DHT22;40846;44.788;20.486;2023-04-15T06:32:32;359.00;2227.20
54946;DHT22;40846;44.788;20.486;2023-04-15T06:34:58;359.20;2176.00
54946;DHT22;40846;44.788;20.486;2023-04-15T06:37:23;359.00;2176.00
54946;DHT22;40846;44.788;20.486;2023-04-15T06:39:49;358.90;2176.00
54946;DHT22;40846;44.788;20.486;2023-04-15T06:42:16;358.90;2176.00
54946;DHT22;40846;44.788;20.486;2023-04-15T06:44:42;358.90;2073.60
54946;DHT22;40846;44.788;20.486;2023-04-15T06:47:07;359.00;2099.20
54946;DHT22;40846;44.788;20.486;2023-04-15T06:49:33;359.00;2073.60
54946;DHT22;40846;44.788;20.486;2023-04-15T06:52:00;359.10;2073.60
54946;DHT22;40846;44.788;20.486;2023-04-15T06:54:26;384.20;2048.00
54946;DHT22;40846;44.788;20.486;2023-04-15T06:56:52;384.40;1996.80
54946;DHT22;40846;44.788;20.486;2023-04-15T06:59:17;384.20;2022.40
54946;DHT22;40846;44.788;20.486;2023-04-15T08:00:21;410.20;1766.40
54946;DHT22;40846;44.788;20.486;2023-04-15T08:02:48;409.90;1792.00
54946;DHT22;40846;44.788;20.486;2023-04-15T08:05:14;410.10;1843.20
54946;DHT22;40846;44.788;20.486;2023-04-15T08:07:40;409.80;1817.60
54946;DHT22;40846;44.788;20.486;2023-04-15T08:10:06;410.20;1817.60
54946;DHT22;40846;44.788;20.486;2023-04-15T08:12:32;410.30;1817.60
54946;DHT22;40846;44.788;20.486;2023-04-15T08:14:58;435.30;1817.60
54946;DHT22;40846;44.788;20.486;2023-04-15T08:18:09;435.50;1766.40
54946;DHT22;40846;44.788;20.486;2023-04-15T08:20:26;435.80;1740.80
54946;DHT22;40846;44.788;20.486;2023-04-15T08:23:10;436.00;1740.80
54946;DHT22;40846;44.788;20.486;2023-04-15T08:25:36;436.00;1664.00
54946;DHT22;40846;44.788;20.486;2023-04-15T08:28:03;435.90;1612.80
54946;DHT22;40846;44.788;20.486;2023-04-15T08:30:33;436.00;1638.40
54946;DHT22;40846;44.788;20.486;2023-04-15T08:33:01;460.90;1612.80
54946;DHT22;40846;44.788;20.486;2023-04-15T08:35:28;461.30;1612.80
54946;DHT22;40846;44.788;20.486;2023-04-15T08:37:53;461.20;1536.00
54946;DHT22;40846;44.788;20.486;2023-04-15T08:40:50;461.50;1561.60
54946;DHT22;40846;44.788;20.486;2023-04-15T08:43:23;461.60;1817.60
54946;DHT22;40846;44.788;20.486;2023-04-15T08:45:53;461.60;1536.00
54946;DHT22;40846;44.788;20.486;2023-04-15T08:48:20;486.80;1561.60
54946;DHT22;40846;44.788;20.486;2023-04-15T09:08:00;512.60;1331.20
54946;DHT22;40846;44.788;20.486;2023-04-15T09:10:27;512.60;1356.80
54946;DHT22;40846;44.788;20.486;2023-04-15T09:15:24;512.80;1305.60
54946;DHT22;40846;44.788;20.486;2023-04-15T09:27:57;512.70;1331.20
54946;DHT22;40846;44.788;20.486;2023-04-15T09:30:24;512.40;1356.80
54946;DHT22;40846;44.788;20.486;2023-04-15T09:33:00;512.10;1356.80
54946;DHT22;40846;44.788;20.486;2023-04-15T09:35:27;487.30;1331.20
54946;DHT22;40846;44.788;20.486;2023-04-15T09:38:00;512.40;1305.60
54946;DHT22;40846;44.788;20.486;2023-04-15T09:40:36;512.40;1280.00
54946;DHT22;40846;44.788;20.486;2023-04-15T09:52:55;537.60;1305.60
54946;DHT22;40846;44.788;20.486;2023-04-15T09:55:21;512.70;1254.40
54946;DHT22;40846;44.788;20.486;2023-04-15T09:57:47;512.60;1280.00
54946;DHT22;40846;44.788;20.486;2023-04-15T10:00:13;512.60;1280.00
54946;DHT22;40846;44.788;20.486;2023-04-15T10:02:39;512.70;1254.40
54946;DHT22;40846;44.788;20.486;2023-04-15T10:05:07;512.80;1254.40
54946;DHT22;40846;44.788;20.486;2023-04-15T10:07:35;512.60;1254.40
54946;DHT22;40846;44.788;20.486;2023-04-15T10:10:02;512.30;1254.40
54946;DHT22;40846;44.788;20.486;2023-04-15T10:12:30;512.30;1254.40
54946;DHT22;40846;44.788;20.486;2023-04-15T10:14:58;512.10;1254.40
54946;DHT22;40846;44.788;20.486;2023-04-15T10:17:27;487.20;1280.00
54946;DHT22;40846;44.788;20.486;2023-04-15T10:20:00;487.20;1280.00
54946;DHT22;40846;44.788;20.486;2023-04-15T10:22:27;487.10;1305.60
54946;DHT22;40846;44.788;20.486;2023-04-15T10:24:55;487.00;1280.00
54946;DHT22;40846;44.788;20.486;2023-04-15T10:27:22;487.00;1305.60
54946;DHT22;40846;44.788;20.486;2023-04-15T10:29:49;487.00;1280.00
54946;DHT22;40846;44.788;20.486;2023-04-15T10:32:18;487.00;1280.00
54946;DHT22;40846;44.788;20.486;2023-04-15T10:34:46;487.00;1305.60
54946;DHT22;40846;44.788;20.486;2023-04-15T10:37:18;487.10;1305.60
54946;DHT22;40846;44.788;20.486;2023-04-15T10:39:45;487.20;1331.20
54946;DHT22;40846;44.788;20.486;2023-04-15T10:42:11;487.30;1331.20
54946;DHT22;40846;44.788;20.486;2023-04-15T10:44:38;512.10;1280.00
54946;DHT22;40846;44.788;20.486;2023-04-15T10:47:13;487.20;1280.00
54946;DHT22;40846;44.788;20.486;2023-04-15T10:49:44;487.10;1280.00
54946;DHT22;40846;44.788;20.486;2023-04-15T10:52:11;512.00;1305.60
54946;DHT22;40846;44.788;20.486;2023-04-15T10:54:38;512.10;1305.60
54946;DHT22;40846;44.788;20.486;2023-04-15T11:02:56;512.40;1254.40
54946;DHT22;40846;44.788;20.486;2023-04-15T11:08:07;512.70;1280.00
54946;DHT22;40846;44.788;20.486;2023-04-15T11:18:16;512.00;1305.60
54946;DHT22;40846;44.788;20.486;2023-04-15T11:20:48;487.00;1331.20
54946;DHT22;40846;44.788;20.486;2023-04-15T11:23:17;487.00;1331.20
54946;DHT22;40846;44.788;20.486;2023-04-15T11:25:43;487.00;1331.20
54946;DHT22;40846;44.788;20.486;2023-04-15T11:28:11;486.80;1331.20
54946;DHT22;40846;44.788;20.486;2023-04-15T11:30:38;487.00;1356.80
54946;DHT22;40846;44.788;20.486;2023-04-15T11:33:09;487.00;1356.80
54946;DHT22;40846;44.788;20.486;2023-04-15T11:35:35;487.00;1356.80
54946;DHT22;40846;44.788;20.486;2023-04-15T11:38:05;487.00;1356.80
54946;DHT22;40846;44.788;20.486;2023-04-15T11:40:33;486.90;1356.80
54946;DHT22;40846;44.788;20.486;2023-04-15T11:43:20;487.00;1382.40
54946;DHT22;40846;44.788;20.486;2023-04-15T11:45:53;486.70;1382.40
54946;DHT22;40846;44.788;20.486;2023-04-15T11:48:21;486.60;1382.40
54946;DHT22;40846;44.788;20.486;2023-04-15T11:50:55;486.40;1408.00
54946;DHT22;40846;44.788;20.486;2023-04-15T11:53:22;486.40;1433.60
54946;DHT22;40846;44.788;20.486;2023-04-15T11:55:50;487.00;1408.00
54946;DHT22;40846;44.788;20.486;2023-04-15T12:00:55;487.00;1382.40
54946;DHT22;40846;44.788;20.486;2023-04-15T12:11:40;487.10;1331.20
54946;DHT22;40846;44.788;20.486;2023-04-15T12:14:15;512.00;1356.80
54946;DHT22;40846;44.788;20.486;2023-04-15T12:16:46;487.30;1305.60
54946;DHT22;40846;44.788;20.486;2023-04-15T12:19:37;512.00;1331.20
54946;DHT22;40846;44.788;20.486;2023-04-15T12:32:10;512.90;1331.20
54946;DHT22;40846;44.788;20.486;2023-04-15T12:34:38;512.80;1331.20
54946;DHT22;40846;44.788;20.486;2023-04-15T12:37:07;537.60;1331.20
54946;DHT22;40846;44.788;20.486;2023-04-15T12:39:35;512.70;1305.60
54946;DHT22;40846;44.788;20.486;2023-04-15T12:42:02;512.60;1331.20
54946;DHT22;40846;44.788;20.486;2023-04-15T12:44:29;512.60;1305.60
54946;DHT22;40846;44.788;20.486;2023-04-15T12:46:55;512.50;1280.00
54946;DHT22;40846;44.788;20.486;2023-04-15T12:49:21;512.40;1305.60
54946;DHT22;40846;44.788;20.486;2023-04-15T12:52:00;512.40;1305.60
54946;DHT22;40846;44.788;20.486;2023-04-15T12:54:33;512.60;1305.60
54946;DHT22;40846;44.788;20.486;2023-04-15T13:36:47;512.60;1254.40
54946;DHT22;40846;44.788;20.486;2023-04-15T13:39:13;512.20;1280.00
54946;DHT22;40846;44.788;20.486;2023-04-15T13:41:39;512.00;1228.80
54946;DHT22;40846;44.788;20.486;2023-04-15T13:44:05;512.10;1203.20
54946;DHT22;40846;44.788;20.486;2023-04-15T13:46:32;512.00;1228.80
54946;DHT22;40846;44.788;20.486;2023-04-15T13:49:10;512.00;1254.40
54946;DHT22;40846;44.788;20.486;2023-04-15T13:51:38;512.10;1228.80
54946;DHT22;40846;44.788;20.486;2023-04-15T13:54:05;512.20;1228.80
54946;DHT22;40846;44.788;20.486;2023-04-15T13:56:50;487.30;1228.80
54946;DHT22;40846;44.788;20.486;2023-04-15T14:21:20;487.30;1254.40
54946;DHT22;40846;44.788;20.486;2023-04-15T14:23:45;487.10;1280.00
54946;DHT22;40846;44.788;20.486;2023-04-15T14:26:11;486.80;1280.00
54946;DHT22;40846;44.788;20.486;2023-04-15T14:33:31;487.00;1280.00
54946;DHT22;40846;44.788;20.486;2023-04-15T14:35:58;487.00;1280.00
54946;DHT22;40846;44.788;20.486;2023-04-15T14:38:23;487.20;1280.00
54946;DHT22;40846;44.788;20.486;2023-04-15T14:40:49;486.90;1254.40
54946;DHT22;40846;44.788;20.486;2023-04-15T14:43:15;487.00;1280.00
54946;DHT22;40846;44.788;20.486;2023-04-15T14:45:41;487.10;1254.40
54946;DHT22;40846;44.788;20.486;2023-04-15T14:48:08;487.20;1254.40
54946;DHT22;40846;44.788;20.486;2023-04-15T16:03:58;486.80;1561.60
54946;DHT22;40846;44.788;20.486;2023-04-15T16:06:24;486.70;1561.60
54946;DHT22;40846;44.788;20.486;2023-04-15T16:16:11;461.60;1792.00
54946;DHT22;40846;44.788;20.486;2023-04-15T16:18:37;461.50;1817.60
54946;DHT22;40846;44.788;20.486;2023-04-15T16:21:02;461.10;1843.20
54946;DHT22;40846;44.788;20.486;2023-04-15T17:26:58;410.30;2355.20
54946;DHT22;40846;44.788;20.486;2023-04-15T17:29:23;410.00;2355.20
54946;DHT22;40846;44.788;20.486;2023-04-15T17:31:51;410.00;2355.20
54946;DHT22;40846;44.788;20.486;2023-04-15T18:30:29;384.70;2329.60
54946;DHT22;40846;44.788;20.486;2023-04-15T18:32:55;384.40;2329.60
54946;DHT22;40846;44.788;20.486;2023-04-15T18:35:21;384.30;2329.60
54946;DHT22;40846;44.788;20.486;2023-04-15T18:37:47;384.40;2329.60
54946;DHT22;40846;44.788;20.486;2023-04-15T18:40:12;384.40;2329.60
54946;DHT22;40846;44.788;20.486;2023-04-15T18:42:40;384.50;2329.60
54946;DHT22;40846;44.788;20.486;2023-04-15T18:45:06;384.50;2329.60
54946;DHT22;40846;44.788;20.486;2023-04-15T18:47:32;384.30;2329.60
54946;DHT22;40846;44.788;20.486;2023-04-15T18:49:58;384.30;2329.60
54946;DHT22;40846;44.788;20.486;2023-04-15T18:52:24;384.30;2329.60
54946;DHT22;40846;44.788;20.486;2023-04-15T18:54:49;384.30;2329.60
54946;DHT22;40846;44.788;20.486;2023-04-15T18:57:15;384.20;2329.60
54946;DHT22;40846;44.788;20.486;2023-04-15T18:59:41;384.20;2329.60
54946;DHT22;40846;44.788;20.486;2023-04-15T19:02:07;384.20;2329.60
54946;DHT22;40846;44.788;20.486;2023-04-15T19:04:33;384.30;2329.60
54946;DHT22;40846;44.788;20.486;2023-04-15T19:07:00;384.40;2329.60
54946;DHT22;40846;44.788;20.486;2023-04-15T19:09:27;384.30;2329.60
54946;DHT22;40846;44.788;20.486;2023-04-15T19:11:53;384.30;2329.60
54946;DHT22;40846;44.788;20.486;2023-04-15T19:14:20;384.20;2329.60
54946;DHT22;40846;44.788;20.486;2023-04-15T19:16:45;384.30;2329.60
54946;DHT22;40846;44.788;20.486;2023-04-15T19:19:11;384.20;2329.60
54946;DHT22;40846;44.788;20.486;2023-04-15T19:21:39;384.20;2329.60
54946;DHT22;40846;44.788;20.486;2023-04-15T19:24:05;384.30;2329.60
54946;DHT22;40846;44.788;20.486;2023-04-15T19:26:31;384.10;2329.60
54946;DHT22;40846;44.788;20.486;2023-04-15T19:28:56;384.10;2329.60
54946;DHT22;40846;44.788;20.486;2023-04-15T19:33:50;384.30;2329.60
54946;DHT22;40846;44.788;20.486;2023-04-15T19:49:20;359.10;2329.60
54946;DHT22;40846;44.788;20.486;2023-04-15T19:51:49;358.90;2329.60
54946;DHT22;40846;44.788;20.486;2023-04-15T19:54:15;358.80;2329.60
54946;DHT22;40846;44.788;20.486;2023-04-15T19:56:41;359.00;2329.60
54946;DHT22;40846;44.788;20.486;2023-04-15T19:59:07;358.90;2329.60
54946;DHT22;40846;44.788;20.486;2023-04-15T20:01:32;358.80;2329.60
54946;DHT22;40846;44.788;20.486;2023-04-15T20:03:58;358.80;2329.60
54946;DHT22;40846;44.788;20.486;2023-04-15T20:06:24;358.70;2329.60
54946;DHT22;40846;44.788;20.486;2023-04-15T20:08:51;358.90;2329.60
54946;DHT22;40846;44.788;20.486;2023-04-15T20:11:18;358.60;2329.60
54946;DHT22;40846;44.788;20.486;2023-04-15T20:13:46;358.70;2329.60
54946;DHT22;40846;44.788;20.486;2023-04-15T20:16:14;358.60;2329.60
54946;DHT22;40846;44.788;20.486;2023-04-15T20:18:40;358.60;2329.60
54946;DHT22;40846;44.788;20.486;2023-04-15T20:21:10;358.60;2329.60
54946;DHT22;40846;44.788;20.486;2023-04-15T20:23:36;358.60;2329.60
54946;DHT22;40846;44.788;20.486;2023-04-15T20:26:06;358.60;2329.60
54946;DHT22;40846;44.788;20.486;2023-04-15T20:28:40;358.60;2329.60
54946;DHT22;40846;44.788;20.486;2023-04-15T20:31:19;358.60;2329.60
54946;DHT22;40846;44.788;20.486;2023-04-15T20:33:52;358.70;2329.60
54946;DHT22;40846;44.788;20.486;2023-04-15T20:36:26;358.70;2329.60
54946;DHT22;40846;44.788;20.486;2023-04-15T20:38:52;358.70;2329.60
54946;DHT22;40846;44.788;20.486;2023-04-15T20:41:18;358.60;2329.60
54946;DHT22;40846;44.788;20.486;2023-04-15T20:43:44;358.50;2329.60
54946;DHT22;40846;44.788;20.486;2023-04-15T20:46:09;358.80;2329.60
54946;DHT22;40846;44.788;20.486;2023-04-15T21:22:55;358.70;2329.60
